logo
Search for airport 
image banner adimage banner adimage banner ad
image banner ad

BIEH - Einiholtsmelar

Located in Einiholtsmelar, Iceland

ICAO - BIEH, IATA -

Data provided by Airmate  

General information

Coordinates: N64°14'43" W20°18'2"
Elevation is 289 feet MSL.
 
View others Airports in South

Operational data

Special qualification required
Current time UTC:
Current local time:
Weather at : BIRK - Reykjavik ( 80 km )
METAR: BIRK 130700Z 36010KT 9999 FEW026 M03/M09 Q1001
TAF: TAF BIRK 130458Z 1306/1406 34008KT 9999 FEW030 TX01/1315Z TNM03/1306Z BECMG 1321/1323 11010KT BECMG 1403/1405 10017G28KT SCT015 BKN030 TEMPO 1405/1406 1500 SN OVC008
View NOTAMs / SUP AIP / TFR affecting this airport [VIEW]
Communications frequencies: [VIEW]

Runways:

RWY identifierQFULength (ft)Width (ft)SurfaceLDA (ft)
092402115GRAVE
272402115GRAVE

Airport contact information

Address: Einiholtsmelar Iceland

Satellite view of BIEH